Grande Italia — IBTF — position and weather

sailwx.info

Track history (hours):
 
Tides and Currents Weather Stations Pressure Air Temp Water Temp Dewpoint Dewpoint Depression Visibility Wind Speed Wind Dir Waves Ship Positions

Grande Italia

Last reported at 2016-Jun-24 13:33 UTC. Time now 2016-Jun-25 21:33 UTC.
Position N 44°21' E 013°49'.

Length 177 m; draft 8 m.

Type: Cargo ship. MMSI: 247039300.

Date/timePositionNaut miles runAvg speedWind from/ knotsBaromVisibWave heightAir tempDewpointWater temp
2016-Jun-24 13:33N 44°21' E 013°49'1717.5
2016-Jun-24 12:33N 44°36' E 013°36'1817.5
2016-Jun-24 11:33N 44°50' E 013°22'1717.2
2016-Jun-24 10:33N 45°05' E 013°09'1716.9
2016-Jun-24 09:34N 45°21' E 013°01'  
2016-Jun-21 13:19N 45°43' E 013°39'0 0.0
2016-Jun-21 12:31N 45°43' E 013°39'24 0.6
2016-Jun-19 19:24N 45°26' E 013°15'1416.3
2016-Jun-19 18:33N 45°12' E 013°12'1716.8
2016-Jun-19 17:33N 44°57' E 013°01'2217.3
2016-Jun-19 16:19N 44°40' E 012°42'23 1.8
2016-Jun-19 03:15N 44°27' E 012°15'0 0.5
2016-Jun-19 02:33N 44°27' E 012°15'4 4.3
2016-Jun-19 01:33N 44°30' E 012°19'1212.0
2016-Jun-19 00:34N 44°30' E 012°36'1514.8
2016-Jun-18 23:31N 44°23' E 012°55'1815.4
2016-Jun-18 22:23N 44°16' E 013°17'1415.4
2016-Jun-18 21:28N 44°07' E 013°33'1415.3
2016-Jun-18 20:34N 43°59' E 013°48'41015.1
2016-Jun-17 17:28N 38°49' E 019°46'1415.1
2016-Jun-17 16:33N 38°37' E 019°55'2115.0
2016-Jun-17 15:09N 38°19' E 020°08'915.1
2016-Jun-17 14:33N 38°11' E 020°14'6015.2
2016-Jun-17 10:33N 37°18' E 020°51'12714.1
2016-Jun-17 01:30N 36°28' E 023°18'1616.0
2016-Jun-17 00:30N 36°41' E 023°29'1516.0
2016-Jun-16 23:33N 36°53' E 023°40'1616.2
2016-Jun-16 22:33N 37°05' E 023°55'1615.9
2016-Jun-16 21:32N 37°17' E 024°08'3215.9
2016-Jun-16 19:33N 37°44' E 024°29'3216.2
2016-Jun-16 17:34N 38°13' E 024°46'9815.7
2016-Jun-16 11:19N 39°42' E 025°40'1415.7
2016-Jun-16 10:27N 39°54' E 025°48'1415.2
2016-Jun-16 09:34N 40°01' E 026°04'141 3.9
2016-Jun-14 21:33N 40°25' E 029°06'17 4.1
2016-Jun-14 17:34N 40°42' E 029°01'1615.9
2016-Jun-14 16:32N 40°44' E 029°22'1312.4
2016-Jun-14 15:29N 40°45' E 029°39'  
Track history (hours):
 
Tides and Currents Weather Stations Pressure Air Temp Water Temp Dewpoint Dewpoint Depression Visibility Wind Speed Wind Dir Waves Ship Positions

Grande Italia

Last reported at 2016-Jun-24 13:33 UTC. Time now 2016-Jun-25 21:33 UTC.
Position N 44°21' E 013°49'.

Length 177 m; draft 8 m.

Type: Cargo ship. MMSI: 247039300.

Date/timePositionNaut miles runAvg speedWind from/ knotsBaromVisibWave heightAir tempDewpointWater temp
2016-Jun-24 13:33N 44°21' E 013°49'1717.5
2016-Jun-24 12:33N 44°36' E 013°36'1817.5
2016-Jun-24 11:33N 44°50' E 013°22'1717.2
2016-Jun-24 10:33N 45°05' E 013°09'1716.9
2016-Jun-24 09:34N 45°21' E 013°01'  
2016-Jun-21 13:19N 45°43' E 013°39'0 0.0
2016-Jun-21 12:31N 45°43' E 013°39'24 0.6
2016-Jun-19 19:24N 45°26' E 013°15'1416.3
2016-Jun-19 18:33N 45°12' E 013°12'1716.8
2016-Jun-19 17:33N 44°57' E 013°01'2217.3
2016-Jun-19 16:19N 44°40' E 012°42'23 1.8
2016-Jun-19 03:15N 44°27' E 012°15'0 0.5
2016-Jun-19 02:33N 44°27' E 012°15'4 4.3
2016-Jun-19 01:33N 44°30' E 012°19'1212.0
2016-Jun-19 00:34N 44°30' E 012°36'1514.8
2016-Jun-18 23:31N 44°23' E 012°55'1815.4
2016-Jun-18 22:23N 44°16' E 013°17'1415.4
2016-Jun-18 21:28N 44°07' E 013°33'1415.3
2016-Jun-18 20:34N 43°59' E 013°48'41015.1
2016-Jun-17 17:28N 38°49' E 019°46'1415.1
2016-Jun-17 16:33N 38°37' E 019°55'2115.0
2016-Jun-17 15:09N 38°19' E 020°08'915.1
2016-Jun-17 14:33N 38°11' E 020°14'6015.2
2016-Jun-17 10:33N 37°18' E 020°51'12714.1
2016-Jun-17 01:30N 36°28' E 023°18'1616.0
2016-Jun-17 00:30N 36°41' E 023°29'1516.0
2016-Jun-16 23:33N 36°53' E 023°40'1616.2
2016-Jun-16 22:33N 37°05' E 023°55'1615.9
2016-Jun-16 21:32N 37°17' E 024°08'3215.9
2016-Jun-16 19:33N 37°44' E 024°29'3216.2
2016-Jun-16 17:34N 38°13' E 024°46'9815.7
2016-Jun-16 11:19N 39°42' E 025°40'1415.7
2016-Jun-16 10:27N 39°54' E 025°48'1415.2
2016-Jun-16 09:34N 40°01' E 026°04'141 3.9
2016-Jun-14 21:33N 40°25' E 029°06'17 4.1
2016-Jun-14 17:34N 40°42' E 029°01'1615.9
2016-Jun-14 16:32N 40°44' E 029°22'1312.4
2016-Jun-14 15:29N 40°45' E 029°39'  

Dump ship's entire track history